sensor_id;sensor_type;location;lat;lon;timestamp;pressure;altitude;pressure_sealevel;temperature;humidity
59329;BME280;45100;46.926;7.452;2023-04-26T00:02:11;95264.30;;;5.51;95.16
59329;BME280;45100;46.926;7.452;2023-04-26T00:04:41;95265.05;;;5.42;95.67
59329;BME280;45100;46.926;7.452;2023-04-26T00:07:15;95265.61;;;5.32;96.01
59329;BME280;45100;46.926;7.452;2023-04-26T00:09:44;95264.57;;;5.22;96.51
59329;BME280;45100;46.926;7.452;2023-04-26T00:12:13;95265.48;;;5.13;97.02
59329;BME280;45100;46.926;7.452;2023-04-26T00:14:44;95267.22;;;5.04;97.60
59329;BME280;45100;46.926;7.452;2023-04-26T00:17:15;95272.36;;;4.97;98.01
59329;BME280;45100;46.926;7.452;2023-04-26T00:19:46;95269.92;;;4.92;98.59
59329;BME280;45100;46.926;7.452;2023-04-26T00:22:16;95274.57;;;4.90;99.08
59329;BME280;45100;46.926;7.452;2023-04-26T00:24:47;95270.25;;;4.90;99.39
59329;BME280;45100;46.926;7.452;2023-04-26T00:27:18;95273.44;;;4.90;99.50
59329;BME280;45100;46.926;7.452;2023-04-26T00:29:48;95272.89;;;4.89;99.35
59329;BME280;45100;46.926;7.452;2023-04-26T00:32:19;95275.44;;;4.88;99.24
59329;BME280;45100;46.926;7.452;2023-04-26T00:34:50;95274.91;;;4.87;99.30
59329;BME280;45100;46.926;7.452;2023-04-26T00:37:22;95276.93;;;4.85;99.06
59329;BME280;45100;46.926;7.452;2023-04-26T00:39:51;95274.62;;;4.82;99.25
59329;BME280;45100;46.926;7.452;2023-04-26T00:42:22;95276.50;;;4.81;99.27
59329;BME280;45100;46.926;7.452;2023-04-26T00:44:57;95274.47;;;4.78;98.92
59329;BME280;45100;46.926;7.452;2023-04-26T00:47:24;95276.45;;;4.76;99.30
59329;BME280;45100;46.926;7.452;2023-04-26T00:49:54;95274.12;;;4.74;99.06
59329;BME280;45100;46.926;7.452;2023-04-26T00:52:25;95275.41;;;4.72;98.92
59329;BME280;45100;46.926;7.452;2023-04-26T00:54:56;95271.96;;;4.68;98.79
59329;BME280;45100;46.926;7.452;2023-04-26T00:57:25;95270.20;;;4.66;98.94
59329;BME280;45100;46.926;7.452;2023-04-26T00:59:56;95273.97;;;4.65;98.87
59329;BME280;45100;46.926;7.452;2023-04-26T01:02:26;95271.34;;;4.63;98.68
59329;BME280;45100;46.926;7.452;2023-04-26T01:07:29;95269.17;;;4.57;98.18
59329;BME280;45100;46.926;7.452;2023-04-26T01:10:00;95266.91;;;4.51;98.19
59329;BME280;45100;46.926;7.452;2023-04-26T01:15:06;95263.41;;;4.42;98.25
59329;BME280;45100;46.926;7.452;2023-04-26T01:17:34;95258.84;;;4.35;98.38
59329;BME280;45100;46.926;7.452;2023-04-26T01:20:06;95261.95;;;4.30;98.58
59329;BME280;45100;46.926;7.452;2023-04-26T01:22:36;95258.11;;;4.25;98.85
59329;BME280;45100;46.926;7.452;2023-04-26T01:25:11;95261.27;;;4.19;98.80
59329;BME280;45100;46.926;7.452;2023-04-26T01:27:36;95252.45;;;4.11;98.93
59329;BME280;45100;46.926;7.452;2023-04-26T01:30:07;95247.03;;;4.03;99.23
59329;BME280;45100;46.926;7.452;2023-04-26T01:32:36;95252.52;;;3.96;99.67
59329;BME280;45100;46.926;7.452;2023-04-26T01:35:07;95250.80;;;3.90;100.00
59329;BME280;45100;46.926;7.452;2023-04-26T01:37:37;95252.28;;;3.89;100.00
59329;BME280;45100;46.926;7.452;2023-04-26T01:40:08;95254.04;;;3.92;100.00
59329;BME280;45100;46.926;7.452;2023-04-26T01:42:37;95256.46;;;3.93;100.00
59329;BME280;45100;46.926;7.452;2023-04-26T01:45:08;95257.08;;;3.96;100.00
59329;BME280;45100;46.926;7.452;2023-04-26T01:47:38;95253.11;;;3.99;100.00
59329;BME280;45100;46.926;7.452;2023-04-26T01:50:09;95252.69;;;4.03;100.00
59329;BME280;45100;46.926;7.452;2023-04-26T01:52:40;95253.79;;;4.03;100.00
59329;BME280;45100;46.926;7.452;2023-04-26T01:55:10;95255.20;;;4.00;100.00
59329;BME280;45100;46.926;7.452;2023-04-26T01:57:41;95250.39;;;3.95;100.00
59329;BME280;45100;46.926;7.452;2023-04-26T02:00:11;95251.16;;;3.92;100.00
59329;BME280;45100;46.926;7.452;2023-04-26T02:02:41;95245.84;;;3.91;100.00
59329;BME280;45100;46.926;7.452;2023-04-26T02:05:12;95244.23;;;3.88;100.00
59329;BME280;45100;46.926;7.452;2023-04-26T02:07:42;95242.63;;;3.86;100.00
59329;BME280;45100;46.926;7.452;2023-04-26T02:10:13;95245.19;;;3.84;100.00
59329;BME280;45100;46.926;7.452;2023-04-26T02:12:43;95241.33;;;3.83;100.00
59329;BME280;45100;46.926;7.452;2023-04-26T02:15:13;95236.23;;;3.80;99.95
59329;BME280;45100;46.926;7.452;2023-04-26T02:17:43;95233.45;;;3.74;99.87
59329;BME280;45100;46.926;7.452;2023-04-26T02:20:13;95233.47;;;3.70;100.00
59329;BME280;45100;46.926;7.452;2023-04-26T02:22:43;95235.49;;;3.67;100.00
59329;BME280;45100;46.926;7.452;2023-04-26T02:25:15;95236.09;;;3.63;100.00
59329;BME280;45100;46.926;7.452;2023-04-26T02:27:45;95236.03;;;3.58;100.00
59329;BME280;45100;46.926;7.452;2023-04-26T02:30:15;95240.43;;;3.55;100.00
59329;BME280;45100;46.926;7.452;2023-04-26T02:32:46;95243.46;;;3.53;100.00
59329;BME280;45100;46.926;7.452;2023-04-26T02:35:16;95244.28;;;3.52;100.00
59329;BME280;45100;46.926;7.452;2023-04-26T02:37:49;95243.12;;;3.53;100.00
59329;BME280;45100;46.926;7.452;2023-04-26T02:40:18;95241.21;;;3.56;100.00
59329;BME280;45100;46.926;7.452;2023-04-26T02:42:48;95243.34;;;3.57;100.00
59329;BME280;45100;46.926;7.452;2023-04-26T02:45:18;95241.41;;;3.59;100.00
59329;BME280;45100;46.926;7.452;2023-04-26T02:47:49;95241.66;;;3.61;100.00
59329;BME280;45100;46.926;7.452;2023-04-26T02:50:20;95243.20;;;3.63;100.00
59329;BME280;45100;46.926;7.452;2023-04-26T02:52:51;95242.97;;;3.63;100.00
59329;BME280;45100;46.926;7.452;2023-04-26T02:55:21;95242.39;;;3.63;100.00
59329;BME280;45100;46.926;7.452;2023-04-26T02:57:51;95246.16;;;3.63;100.00
59329;BME280;45100;46.926;7.452;2023-04-26T03:00:23;95246.39;;;3.63;100.00
59329;BME280;45100;46.926;7.452;2023-04-26T03:02:52;95241.85;;;3.63;100.00
59329;BME280;45100;46.926;7.452;2023-04-26T03:05:22;95238.66;;;3.63;100.00
59329;BME280;45100;46.926;7.452;2023-04-26T03:07:52;95241.75;;;3.63;100.00
59329;BME280;45100;46.926;7.452;2023-04-26T03:10:23;95236.64;;;3.63;100.00
59329;BME280;45100;46.926;7.452;2023-04-26T03:12:54;95234.32;;;3.65;100.00
59329;BME280;45100;46.926;7.452;2023-04-26T03:15:23;95235.49;;;3.67;100.00
59329;BME280;45100;46.926;7.452;2023-04-26T03:17:54;95230.33;;;3.68;100.00
59329;BME280;45100;46.926;7.452;2023-04-26T03:20:26;95232.45;;;3.67;100.00
59329;BME280;45100;46.926;7.452;2023-04-26T03:22:56;95230.12;;;3.65;100.00
59329;BME280;45100;46.926;7.452;2023-04-26T03:25:26;95230.57;;;3.63;100.00
59329;BME280;45100;46.926;7.452;2023-04-26T03:27:57;95227.62;;;3.63;100.00
59329;BME280;45100;46.926;7.452;2023-04-26T03:30:27;95232.84;;;3.60;100.00
59329;BME280;45100;46.926;7.452;2023-04-26T03:32:57;95235.81;;;3.58;100.00
59329;BME280;45100;46.926;7.452;2023-04-26T03:38:02;95237.25;;;3.52;100.00
59329;BME280;45100;46.926;7.452;2023-04-26T03:40:31;95238.40;;;3.54;100.00
59329;BME280;45100;46.926;7.452;2023-04-26T03:43:02;95241.75;;;3.54;100.00
59329;BME280;45100;46.926;7.452;2023-04-26T03:45:33;95243.59;;;3.53;100.00
59329;BME280;45100;46.926;7.452;2023-04-26T03:48:04;95242.89;;;3.53;100.00
59329;BME280;45100;46.926;7.452;2023-04-26T03:50:34;95242.06;;;3.54;99.94
59329;BME280;45100;46.926;7.452;2023-04-26T03:53:05;95241.13;;;3.53;99.77
59329;BME280;45100;46.926;7.452;2023-04-26T03:55:36;95240.61;;;3.52;99.55
59329;BME280;45100;46.926;7.452;2023-04-26T03:58:07;95239.07;;;3.50;99.19
59329;BME280;45100;46.926;7.452;2023-04-26T04:00:37;95234.31;;;3.47;98.85
59329;BME280;45100;46.926;7.452;2023-04-26T04:03:07;95237.31;;;3.43;98.73
59329;BME280;45100;46.926;7.452;2023-04-26T04:05:37;95237.41;;;3.40;98.58
59329;BME280;45100;46.926;7.452;2023-04-26T04:08:08;95234.73;;;3.37;98.53
59329;BME280;45100;46.926;7.452;2023-04-26T04:10:38;95230.30;;;3.34;98.56
59329;BME280;45100;46.926;7.452;2023-04-26T04:13:09;95227.00;;;3.32;99.00
59329;BME280;45100;46.926;7.452;2023-04-26T04:15:39;95220.70;;;3.31;99.22
59329;BME280;45100;46.926;7.452;2023-04-26T04:18:10;95226.13;;;3.31;99.41
59329;BME280;45100;46.926;7.452;2023-04-26T04:20:40;95226.88;;;3.31;99.16
59329;BME280;45100;46.926;7.452;2023-04-26T04:23:11;95223.55;;;3.30;99.10
59329;BME280;45100;46.926;7.452;2023-04-26T04:25:45;95225.88;;;3.29;99.16
59329;BME280;45100;46.926;7.452;2023-04-26T04:28:14;95230.33;;;3.30;99.35
59329;BME280;45100;46.926;7.452;2023-04-26T04:30:44;95223.27;;;3.31;99.31
59329;BME280;45100;46.926;7.452;2023-04-26T04:33:14;95222.12;;;3.32;99.17
59329;BME280;45100;46.926;7.452;2023-04-26T04:35:44;95222.41;;;3.33;98.81
59329;BME280;45100;46.926;7.452;2023-04-26T04:38:14;95220.55;;;3.31;98.30
59329;BME280;45100;46.926;7.452;2023-04-26T04:40:48;95225.58;;;3.34;98.90
59329;BME280;45100;46.926;7.452;2023-04-26T04:43:17;95225.23;;;3.44;99.24
59329;BME280;45100;46.926;7.452;2023-04-26T04:45:48;95228.13;;;3.64;99.39
59329;BME280;45100;46.926;7.452;2023-04-26T04:48:18;95233.27;;;3.94;98.67
59329;BME280;45100;46.926;7.452;2023-04-26T04:53:22;95232.57;;;4.69;95.81
59329;BME280;45100;46.926;7.452;2023-04-26T04:55:52;95233.39;;;5.03;93.26
59329;BME280;45100;46.926;7.452;2023-04-26T04:58:22;95238.11;;;5.31;91.52
59329;BME280;45100;46.926;7.452;2023-04-26T05:00:57;95238.17;;;5.49;90.08
59329;BME280;45100;46.926;7.452;2023-04-26T05:03:24;95245.77;;;5.57;89.31
59329;BME280;45100;46.926;7.452;2023-04-26T05:05:54;95245.82;;;5.59;88.41
59329;BME280;45100;46.926;7.452;2023-04-26T05:08:24;95246.81;;;5.56;87.29
59329;BME280;45100;46.926;7.452;2023-04-26T05:10:56;95251.33;;;5.46;86.99
59329;BME280;45100;46.926;7.452;2023-04-26T05:13:25;95252.41;;;5.40;87.54
59329;BME280;45100;46.926;7.452;2023-04-26T05:15:55;95252.28;;;5.35;87.84
59329;BME280;45100;46.926;7.452;2023-04-26T05:18:25;95258.19;;;5.30;88.08
59329;BME280;45100;46.926;7.452;2023-04-26T05:20:56;95257.08;;;5.25;88.43
59329;BME280;45100;46.926;7.452;2023-04-26T05:23:27;95263.30;;;5.20;88.33
59329;BME280;45100;46.926;7.452;2023-04-26T05:26:00;95267.80;;;5.13;88.54
59329;BME280;45100;46.926;7.452;2023-04-26T05:28:28;95269.39;;;5.06;88.57
59329;BME280;45100;46.926;7.452;2023-04-26T05:30:59;95274.88;;;4.97;88.82
59329;BME280;45100;46.926;7.452;2023-04-26T05:33:29;95277.20;;;4.90;89.18
59329;BME280;45100;46.926;7.452;2023-04-26T05:36:01;95276.38;;;4.84;89.70
59329;BME280;45100;46.926;7.452;2023-04-26T05:38:30;95277.48;;;4.80;89.85
59329;BME280;45100;46.926;7.452;2023-04-26T05:41:00;95276.77;;;4.80;90.33
59329;BME280;45100;46.926;7.452;2023-04-26T05:43:31;95276.04;;;4.80;90.35
59329;BME280;45100;46.926;7.452;2023-04-26T05:46:02;95277.78;;;4.79;90.12
59329;BME280;45100;46.926;7.452;2023-04-26T05:48:32;95275.17;;;4.78;90.44
59329;BME280;45100;46.926;7.452;2023-04-26T05:51:02;95280.14;;;4.78;90.46
59329;BME280;45100;46.926;7.452;2023-04-26T05:53:33;95281.12;;;4.82;90.74
59329;BME280;45100;46.926;7.452;2023-04-26T05:56:04;95284.80;;;4.86;90.56
59329;BME280;45100;46.926;7.452;2023-04-26T05:58:33;95283.85;;;4.90;90.27
59329;BME280;45100;46.926;7.452;2023-04-26T06:01:05;95286.64;;;4.94;90.56
59329;BME280;45100;46.926;7.452;2023-04-26T06:03:36;95287.06;;;5.02;90.74
59329;BME280;45100;46.926;7.452;2023-04-26T06:06:06;95288.45;;;5.11;90.14
59329;BME280;45100;46.926;7.452;2023-04-26T06:08:36;95282.60;;;5.22;89.90
59329;BME280;45100;46.926;7.452;2023-04-26T06:11:07;95283.32;;;5.36;89.69
59329;BME280;45100;46.926;7.452;2023-04-26T06:13:37;95288.10;;;5.56;89.48
59329;BME280;45100;46.926;7.452;2023-04-26T06:16:08;95285.14;;;5.79;89.10
59329;BME280;45100;46.926;7.452;2023-04-26T06:18:39;95283.84;;;6.02;88.13
59329;BME280;45100;46.926;7.452;2023-04-26T06:21:08;95277.08;;;6.15;86.17
59329;BME280;45100;46.926;7.452;2023-04-26T06:23:39;95282.70;;;6.20;84.79
59329;BME280;45100;46.926;7.452;2023-04-26T06:26:10;95281.42;;;6.20;84.78
59329;BME280;45100;46.926;7.452;2023-04-26T06:28:41;95285.33;;;6.27;85.64
59329;BME280;45100;46.926;7.452;2023-04-26T06:31:12;95281.12;;;6.38;85.50
59329;BME280;45100;46.926;7.452;2023-04-26T06:33:42;95280.00;;;6.50;85.19
59329;BME280;45100;46.926;7.452;2023-04-26T06:36:13;95282.20;;;6.62;85.10
59329;BME280;45100;46.926;7.452;2023-04-26T06:38:43;95281.73;;;6.75;85.03
59329;BME280;45100;46.926;7.452;2023-04-26T06:41:13;95285.72;;;6.91;84.87
59329;BME280;45100;46.926;7.452;2023-04-26T06:43:44;95279.13;;;7.06;84.38
59329;BME280;45100;46.926;7.452;2023-04-26T06:46:15;95278.66;;;7.20;83.46
59329;BME280;45100;46.926;7.452;2023-04-26T06:48:46;95278.14;;;7.27;83.08
59329;BME280;45100;46.926;7.452;2023-04-26T06:51:16;95277.36;;;7.33;82.71
59329;BME280;45100;46.926;7.452;2023-04-26T06:53:48;95272.88;;;7.37;82.99
59329;BME280;45100;46.926;7.452;2023-04-26T06:56:18;95269.73;;;7.40;83.52
59329;BME280;45100;46.926;7.452;2023-04-26T06:59:01;95270.11;;;7.44;83.43
59329;BME280;45100;46.926;7.452;2023-04-26T07:01:18;95266.62;;;7.48;83.75
59329;BME280;45100;46.926;7.452;2023-04-26T07:03:48;95269.62;;;7.52;82.80
59329;BME280;45100;46.926;7.452;2023-04-26T07:06:19;95272.25;;;7.51;82.67
59329;BME280;45100;46.926;7.452;2023-04-26T07:08:50;95275.65;;;7.48;82.96
59329;BME280;45100;46.926;7.452;2023-04-26T07:11:20;95271.92;;;7.49;82.60
59329;BME280;45100;46.926;7.452;2023-04-26T07:13:51;95270.79;;;7.55;83.51
59329;BME280;45100;46.926;7.452;2023-04-26T07:16:22;95272.20;;;7.65;83.75
59329;BME280;45100;46.926;7.452;2023-04-26T07:18:53;95265.03;;;7.78;82.92
59329;BME280;45100;46.926;7.452;2023-04-26T07:21:23;95262.27;;;7.94;82.79
59329;BME280;45100;46.926;7.452;2023-04-26T07:23:57;95257.49;;;8.13;82.46
59329;BME280;45100;46.926;7.452;2023-04-26T07:26:26;95252.70;;;8.29;81.79
59329;BME280;45100;46.926;7.452;2023-04-26T07:28:56;95253.70;;;8.43;80.60
59329;BME280;45100;46.926;7.452;2023-04-26T07:31:26;95254.70;;;8.53;79.88
59329;BME280;45100;46.926;7.452;2023-04-26T07:33:56;95252.30;;;8.62;79.48
59329;BME280;45100;46.926;7.452;2023-04-26T07:36:28;95245.23;;;8.69;79.12
59329;BME280;45100;46.926;7.452;2023-04-26T07:38:57;95239.08;;;8.77;77.53
59329;BME280;45100;46.926;7.452;2023-04-26T07:41:28;95234.62;;;8.82;77.96
59329;BME280;45100;46.926;7.452;2023-04-26T07:43:59;95229.22;;;8.87;78.87
59329;BME280;45100;46.926;7.452;2023-04-26T07:46:31;95227.70;;;8.92;79.03
59329;BME280;45100;46.926;7.452;2023-04-26T07:49:00;95224.56;;;8.93;78.14
59329;BME280;45100;46.926;7.452;2023-04-26T07:51:31;95228.88;;;8.96;77.93
59329;BME280;45100;46.926;7.452;2023-04-26T07:56:35;95227.10;;;8.85;74.43
59329;BME280;45100;46.926;7.452;2023-04-26T07:59:05;95228.09;;;8.74;74.36
59329;BME280;45100;46.926;7.452;2023-04-26T08:01:35;95219.34;;;8.65;74.47
59329;BME280;45100;46.926;7.452;2023-04-26T08:04:06;95223.28;;;8.63;76.15
59329;BME280;45100;46.926;7.452;2023-04-26T08:06:39;95224.38;;;8.63;75.14
59329;BME280;45100;46.926;7.452;2023-04-26T08:09:07;95225.86;;;8.63;73.19
59329;BME280;45100;46.926;7.452;2023-04-26T08:11:38;95226.44;;;8.62;74.99
59329;BME280;45100;46.926;7.452;2023-04-26T08:14:09;95225.59;;;8.64;75.96
59329;BME280;45100;46.926;7.452;2023-04-26T08:16:41;95224.97;;;8.75;77.62
59329;BME280;45100;46.926;7.452;2023-04-26T08:19:11;95227.03;;;8.89;76.18
59329;BME280;45100;46.926;7.452;2023-04-26T08:21:41;95222.35;;;9.01;75.42
59329;BME280;45100;46.926;7.452;2023-04-26T08:24:12;95223.73;;;9.11;74.89
59329;BME280;45100;46.926;7.452;2023-04-26T08:26:43;95224.39;;;9.20;73.16
59329;BME280;45100;46.926;7.452;2023-04-26T08:29:16;95223.94;;;9.26;71.35
59329;BME280;45100;46.926;7.452;2023-04-26T08:31:44;95230.01;;;9.33;71.19
59329;BME280;45100;46.926;7.452;2023-04-26T08:34:15;95234.62;;;9.40;71.80
59329;BME280;45100;46.926;7.452;2023-04-26T08:36:46;95232.58;;;9.50;72.69
59329;BME280;45100;46.926;7.452;2023-04-26T08:39:17;95233.05;;;9.60;70.68
59329;BME280;45100;46.926;7.452;2023-04-26T08:41:52;95224.55;;;9.72;72.62
59329;BME280;45100;46.926;7.452;2023-04-26T08:44:21;95229.09;;;9.85;71.67
59329;BME280;45100;46.926;7.452;2023-04-26T08:46:58;95228.28;;;9.92;69.34
59329;BME280;45100;46.926;7.452;2023-04-26T08:49:39;95223.91;;;9.98;68.43
59329;BME280;45100;46.926;7.452;2023-04-26T08:51:52;95220.95;;;10.06;68.83
59329;BME280;45100;46.926;7.452;2023-04-26T08:54:22;95223.84;;;10.16;70.58
59329;BME280;45100;46.926;7.452;2023-04-26T08:56:52;95212.23;;;10.26;69.06
59329;BME280;45100;46.926;7.452;2023-04-26T08:59:23;95206.09;;;10.32;67.98
59329;BME280;45100;46.926;7.452;2023-04-26T09:01:53;95204.05;;;10.32;66.80
59329;BME280;45100;46.926;7.452;2023-04-26T09:04:23;95210.06;;;10.32;66.75
59329;BME280;45100;46.926;7.452;2023-04-26T09:06:59;95208.08;;;10.30;66.42
59329;BME280;45100;46.926;7.452;2023-04-26T09:09:26;95215.25;;;10.29;65.67
59329;BME280;45100;46.926;7.452;2023-04-26T09:11:57;95214.45;;;10.25;65.34
59329;BME280;45100;46.926;7.452;2023-04-26T09:14:25;95213.81;;;10.24;68.10
59329;BME280;45100;46.926;7.452;2023-04-26T09:16:54;95207.92;;;10.32;66.97
59329;BME280;45100;46.926;7.452;2023-04-26T09:19:34;95201.11;;;10.50;69.92
59329;BME280;45100;46.926;7.452;2023-04-26T09:21:56;95204.20;;;10.75;69.09
59329;BME280;45100;46.926;7.452;2023-04-26T09:24:25;95203.77;;;10.97;64.33
59329;BME280;45100;46.926;7.452;2023-04-26T09:27:02;95197.72;;;11.12;65.38
59329;BME280;45100;46.926;7.452;2023-04-26T09:29:27;95195.25;;;11.24;63.31
59329;BME280;45100;46.926;7.452;2023-04-26T09:31:58;95198.25;;;11.33;64.20
59329;BME280;45100;46.926;7.452;2023-04-26T09:34:43;95201.52;;;11.46;62.75
59329;BME280;45100;46.926;7.452;2023-04-26T09:36:59;95194.66;;;11.63;63.10
59329;BME280;45100;46.926;7.452;2023-04-26T09:39:37;95199.70;;;11.78;61.00
59329;BME280;45100;46.926;7.452;2023-04-26T09:42:02;95204.23;;;11.73;59.81
59329;BME280;45100;46.926;7.452;2023-04-26T09:44:32;95199.06;;;11.67;60.71
59329;BME280;45100;46.926;7.452;2023-04-26T09:47:05;95200.06;;;11.77;60.31
59329;BME280;45100;46.926;7.452;2023-04-26T09:49:45;95202.02;;;11.87;60.32
59329;BME280;45100;46.926;7.452;2023-04-26T09:52:05;95196.05;;;11.99;63.48
59329;BME280;45100;46.926;7.452;2023-04-26T09:54:49;95195.27;;;12.18;61.47
59329;BME280;45100;46.926;7.452;2023-04-26T09:57:05;95195.97;;;12.33;60.21
59329;BME280;45100;46.926;7.452;2023-04-26T09:59:46;95188.73;;;12.42;58.23
59329;BME280;45100;46.926;7.452;2023-04-26T10:02:12;95185.28;;;12.39;55.46
59329;BME280;45100;46.926;7.452;2023-04-26T10:04:37;95180.14;;;12.38;56.07
59329;BME280;45100;46.926;7.452;2023-04-26T10:07:08;95182.25;;;12.49;56.71
59329;BME280;45100;46.926;7.452;2023-04-26T10:09:38;95183.93;;;12.63;54.03
59329;BME280;45100;46.926;7.452;2023-04-26T10:12:12;95176.03;;;12.66;55.41
59329;BME280;45100;46.926;7.452;2023-04-26T10:14:41;95175.37;;;12.65;55.48
59329;BME280;45100;46.926;7.452;2023-04-26T10:17:12;95175.98;;;12.71;54.72
59329;BME280;45100;46.926;7.452;2023-04-26T10:19:41;95173.66;;;12.75;54.95
59329;BME280;45100;46.926;7.452;2023-04-26T10:22:16;95176.52;;;12.69;54.61
59329;BME280;45100;46.926;7.452;2023-04-26T10:24:43;95173.44;;;12.58;55.36
59329;BME280;45100;46.926;7.452;2023-04-26T10:27:11;95173.55;;;12.56;56.09
59329;BME280;45100;46.926;7.452;2023-04-26T10:32:17;95165.44;;;12.58;56.02
59329;BME280;45100;46.926;7.452;2023-04-26T10:34:43;95161.64;;;12.64;55.91
59329;BME280;45100;46.926;7.452;2023-04-26T10:37:14;95162.98;;;12.76;55.84
59329;BME280;45100;46.926;7.452;2023-04-26T10:39:44;95162.53;;;12.89;52.44
59329;BME280;45100;46.926;7.452;2023-04-26T10:42:24;95159.30;;;12.99;51.75
59329;BME280;45100;46.926;7.452;2023-04-26T10:44:45;95160.06;;;13.04;50.98
59329;BME280;45100;46.926;7.452;2023-04-26T10:47:22;95153.19;;;13.03;52.49
59329;BME280;45100;46.926;7.452;2023-04-26T10:49:48;95155.44;;;13.09;52.62
59329;BME280;45100;46.926;7.452;2023-04-26T10:52:18;95155.38;;;13.15;49.35
59329;BME280;45100;46.926;7.452;2023-04-26T10:54:53;95149.23;;;13.20;50.40
59329;BME280;45100;46.926;7.452;2023-04-26T10:57:16;95154.53;;;13.29;49.60
59329;BME280;45100;46.926;7.452;2023-04-26T11:04:53;95145.66;;;13.29;50.19
59329;BME280;45100;46.926;7.452;2023-04-26T11:09:51;95140.59;;;13.35;50.44
59329;BME280;45100;46.926;7.452;2023-04-26T11:12:21;95149.11;;;13.31;48.92
59329;BME280;45100;46.926;7.452;2023-04-26T11:14:52;95138.03;;;13.29;51.22
59329;BME280;45100;46.926;7.452;2023-04-26T11:17:23;95144.02;;;13.34;50.20
59329;BME280;45100;46.926;7.452;2023-04-26T11:19:54;95142.92;;;13.38;49.58
59329;BME280;45100;46.926;7.452;2023-04-26T11:24:59;95141.28;;;13.48;50.85
59329;BME280;45100;46.926;7.452;2023-04-26T11:27:29;95140.57;;;13.53;49.33
59329;BME280;45100;46.926;7.452;2023-04-26T11:30:01;95141.16;;;13.51;49.64
59329;BME280;45100;46.926;7.452;2023-04-26T11:32:29;95135.50;;;13.50;49.70
59329;BME280;45100;46.926;7.452;2023-04-26T11:34:59;95137.06;;;13.53;50.44
59329;BME280;45100;46.926;7.452;2023-04-26T11:37:29;95142.39;;;13.58;49.75
59329;BME280;45100;46.926;7.452;2023-04-26T11:40:00;95127.30;;;13.63;48.29
59329;BME280;45100;46.926;7.452;2023-04-26T11:42:31;95125.69;;;13.60;47.96
59329;BME280;45100;46.926;7.452;2023-04-26T11:45:08;95127.48;;;13.57;48.25
59329;BME280;45100;46.926;7.452;2023-04-26T11:47:33;95123.64;;;13.60;46.95
59329;BME280;45100;46.926;7.452;2023-04-26T11:52:38;95135.99;;;13.93;47.21
59329;BME280;45100;46.926;7.452;2023-04-26T11:55:08;95133.20;;;14.13;45.07
59329;BME280;45100;46.926;7.452;2023-04-26T11:57:38;95125.73;;;14.18;44.05
59329;BME280;45100;46.926;7.452;2023-04-26T12:00:12;95126.41;;;14.16;44.16
59329;BME280;45100;46.926;7.452;2023-04-26T12:02:45;95121.64;;;14.21;44.77
59329;BME280;45100;46.926;7.452;2023-04-26T12:07:42;95114.31;;;14.42;42.73
59329;BME280;45100;46.926;7.452;2023-04-26T12:10:18;95108.57;;;14.55;39.65
59329;BME280;45100;46.926;7.452;2023-04-26T12:12:43;95113.85;;;14.65;39.71
59329;BME280;45100;46.926;7.452;2023-04-26T12:15:13;95102.70;;;14.75;39.09
59329;BME280;45100;46.926;7.452;2023-04-26T12:20:17;95096.88;;;14.84;38.96
59329;BME280;45100;46.926;7.452;2023-04-26T12:23:02;95094.40;;;14.95;39.23
59329;BME280;45100;46.926;7.452;2023-04-26T12:25:17;95094.91;;;15.07;38.38
59329;BME280;45100;46.926;7.452;2023-04-26T12:27:47;95094.27;;;15.12;38.93
59329;BME280;45100;46.926;7.452;2023-04-26T12:30:18;95101.27;;;15.15;39.59
59329;BME280;45100;46.926;7.452;2023-04-26T12:32:49;95094.54;;;15.07;38.54
59329;BME280;45100;46.926;7.452;2023-04-26T12:35:20;95095.38;;;15.04;38.89
59329;BME280;45100;46.926;7.452;2023-04-26T12:37:53;95101.47;;;15.03;39.22
59329;BME280;45100;46.926;7.452;2023-04-26T12:40:20;95102.28;;;14.96;38.70
59329;BME280;45100;46.926;7.452;2023-04-26T12:42:52;95099.97;;;14.84;39.14
59329;BME280;45100;46.926;7.452;2023-04-26T12:45:23;95106.23;;;14.73;39.18
59329;BME280;45100;46.926;7.452;2023-04-26T12:47:53;95107.17;;;14.59;38.89
59329;BME280;45100;46.926;7.452;2023-04-26T12:50:23;95103.32;;;14.49;39.00
59329;BME280;45100;46.926;7.452;2023-04-26T12:52:53;95104.46;;;14.48;40.46
59329;BME280;45100;46.926;7.452;2023-04-26T12:55:25;95097.98;;;14.51;39.29
59329;BME280;45100;46.926;7.452;2023-04-26T12:57:54;95106.30;;;14.58;40.53
59329;BME280;45100;46.926;7.452;2023-04-26T13:00:26;95104.98;;;14.69;39.46
59329;BME280;45100;46.926;7.452;2023-04-26T13:02:55;95095.18;;;14.75;39.00
59329;BME280;45100;46.926;7.452;2023-04-26T13:05:26;95096.98;;;14.84;39.45
59329;BME280;45100;46.926;7.452;2023-04-26T13:07:57;95097.95;;;14.88;38.64
59329;BME280;45100;46.926;7.452;2023-04-26T13:10:27;95098.77;;;14.90;39.29
59329;BME280;45100;46.926;7.452;2023-04-26T13:12:58;95096.09;;;14.94;39.41
59329;BME280;45100;46.926;7.452;2023-04-26T13:15:27;95097.94;;;14.94;39.96
59329;BME280;45100;46.926;7.452;2023-04-26T13:17:58;95098.14;;;15.00;40.24
59329;BME280;45100;46.926;7.452;2023-04-26T13:20:29;95090.95;;;15.05;40.55
59329;BME280;45100;46.926;7.452;2023-04-26T13:22:59;95096.14;;;15.09;39.76
59329;BME280;45100;46.926;7.452;2023-04-26T13:25:30;95088.39;;;15.11;39.66
59329;BME280;45100;46.926;7.452;2023-04-26T13:30:34;95095.22;;;15.09;38.96
59329;BME280;45100;46.926;7.452;2023-04-26T13:33:04;95088.81;;;15.07;38.23
59329;BME280;45100;46.926;7.452;2023-04-26T13:35:34;95076.98;;;15.08;39.04
59329;BME280;45100;46.926;7.452;2023-04-26T13:40:38;95083.66;;;15.28;37.88
59329;BME280;45100;46.926;7.452;2023-04-26T13:43:08;95076.75;;;15.33;37.32
59329;BME280;45100;46.926;7.452;2023-04-26T13:45:38;95071.28;;;15.38;38.87
59329;BME280;45100;46.926;7.452;2023-04-26T13:48:09;95073.54;;;15.52;38.89
59329;BME280;45100;46.926;7.452;2023-04-26T13:50:40;95069.27;;;15.67;38.16
59329;BME280;45100;46.926;7.452;2023-04-26T13:53:11;95067.08;;;15.70;37.48
59329;BME280;45100;46.926;7.452;2023-04-26T13:55:41;95070.28;;;15.69;38.28
59329;BME280;45100;46.926;7.452;2023-04-26T13:58:11;95073.95;;;15.71;38.39
59329;BME280;45100;46.926;7.452;2023-04-26T14:00:41;95074.84;;;15.74;38.44